sensor_id;sensor_type;location;lat;lon;timestamp;temperature;humidity
25214;DHT22;13160;51.834;4.706;2022-08-19T00:00:09;20.10;99.90
25214;DHT22;13160;51.834;4.706;2022-08-19T00:02:42;20.10;99.90
25214;DHT22;13160;51.834;4.706;2022-08-19T00:05:17;20.00;99.90
25214;DHT22;13160;51.834;4.706;2022-08-19T00:07:46;20.00;99.90
25214;DHT22;13160;51.834;4.706;2022-08-19T00:10:17;20.00;99.90
25214;DHT22;13160;51.834;4.706;2022-08-19T00:12:46;20.00;99.90
25214;DHT22;13160;51.834;4.706;2022-08-19T00:15:16;19.90;99.90
25214;DHT22;13160;51.834;4.706;2022-08-19T00:17:47;19.90;99.90
25214;DHT22;13160;51.834;4.706;2022-08-19T00:20:19;19.90;99.90
25214;DHT22;13160;51.834;4.706;2022-08-19T00:22:48;19.90;99.90
25214;DHT22;13160;51.834;4.706;2022-08-19T00:25:20;19.90;99.90
25214;DHT22;13160;51.834;4.706;2022-08-19T00:27:56;19.90;99.90
25214;DHT22;13160;51.834;4.706;2022-08-19T00:30:26;19.80;99.90
25214;DHT22;13160;51.834;4.706;2022-08-19T00:32:55;19.80;99.90
25214;DHT22;13160;51.834;4.706;2022-08-19T00:35:23;19.80;99.90
25214;DHT22;13160;51.834;4.706;2022-08-19T00:37:54;19.80;99.90
25214;DHT22;13160;51.834;4.706;2022-08-19T00:40:24;19.80;99.90
25214;DHT22;13160;51.834;4.706;2022-08-19T00:42:53;19.70;99.90
25214;DHT22;13160;51.834;4.706;2022-08-19T00:45:25;19.70;99.90
25214;DHT22;13160;51.834;4.706;2022-08-19T00:48:02;19.70;99.90
25214;DHT22;13160;51.834;4.706;2022-08-19T00:50:41;19.70;99.90
25214;DHT22;13160;51.834;4.706;2022-08-19T00:53:22;19.70;99.90
25214;DHT22;13160;51.834;4.706;2022-08-19T00:55:56;19.60;99.90
25214;DHT22;13160;51.834;4.706;2022-08-19T00:58:29;19.60;99.90
25214;DHT22;13160;51.834;4.706;2022-08-19T01:00:59;19.60;99.90
25214;DHT22;13160;51.834;4.706;2022-08-19T01:03:28;19.60;99.90
25214;DHT22;13160;51.834;4.706;2022-08-19T01:06:16;19.60;99.90
25214;DHT22;13160;51.834;4.706;2022-08-19T01:08:46;19.50;99.90
25214;DHT22;13160;51.834;4.706;2022-08-19T01:11:17;19.60;99.90
25214;DHT22;13160;51.834;4.706;2022-08-19T01:13:46;19.60;99.90
25214;DHT22;13160;51.834;4.706;2022-08-19T01:16:18;19.50;99.90
25214;DHT22;13160;51.834;4.706;2022-08-19T01:18:49;19.50;99.90
25214;DHT22;13160;51.834;4.706;2022-08-19T01:21:21;19.50;99.90
25214;DHT22;13160;51.834;4.706;2022-08-19T01:23:53;19.60;99.90
25214;DHT22;13160;51.834;4.706;2022-08-19T01:26:24;19.60;99.90
25214;DHT22;13160;51.834;4.706;2022-08-19T01:28:57;19.60;99.90
25214;DHT22;13160;51.834;4.706;2022-08-19T01:31:31;19.50;99.90
25214;DHT22;13160;51.834;4.706;2022-08-19T01:34:00;19.50;99.90
25214;DHT22;13160;51.834;4.706;2022-08-19T01:36:32;19.60;99.90
25214;DHT22;13160;51.834;4.706;2022-08-19T01:39:07;19.60;99.90
25214;DHT22;13160;51.834;4.706;2022-08-19T01:41:36;19.60;99.90
25214;DHT22;13160;51.834;4.706;2022-08-19T01:44:06;19.60;99.90
25214;DHT22;13160;51.834;4.706;2022-08-19T01:46:46;19.60;99.90
25214;DHT22;13160;51.834;4.706;2022-08-19T01:49:17;19.70;99.90
25214;DHT22;13160;51.834;4.706;2022-08-19T01:51:47;19.60;99.90
25214;DHT22;13160;51.834;4.706;2022-08-19T01:54:19;19.70;99.90
25214;DHT22;13160;51.834;4.706;2022-08-19T01:56:57;19.60;99.90
25214;DHT22;13160;51.834;4.706;2022-08-19T01:59:27;19.60;99.90
25214;DHT22;13160;51.834;4.706;2022-08-19T02:01:55;19.60;99.90
25214;DHT22;13160;51.834;4.706;2022-08-19T02:04:24;19.60;99.90
25214;DHT22;13160;51.834;4.706;2022-08-19T02:06:52;19.60;99.90
25214;DHT22;13160;51.834;4.706;2022-08-19T02:09:22;19.60;99.90
25214;DHT22;13160;51.834;4.706;2022-08-19T02:11:50;19.60;99.90
25214;DHT22;13160;51.834;4.706;2022-08-19T02:14:20;19.60;99.90
25214;DHT22;13160;51.834;4.706;2022-08-19T02:16:48;19.60;99.90
25214;DHT22;13160;51.834;4.706;2022-08-19T02:19:16;19.60;99.90
25214;DHT22;13160;51.834;4.706;2022-08-19T02:21:45;19.60;99.90
25214;DHT22;13160;51.834;4.706;2022-08-19T02:24:13;19.70;99.90
25214;DHT22;13160;51.834;4.706;2022-08-19T02:26:43;19.60;99.90
25214;DHT22;13160;51.834;4.706;2022-08-19T02:29:11;19.70;99.90
25214;DHT22;13160;51.834;4.706;2022-08-19T02:31:40;19.70;99.90
25214;DHT22;13160;51.834;4.706;2022-08-19T02:34:08;19.70;99.90
25214;DHT22;13160;51.834;4.706;2022-08-19T02:36:37;19.70;99.90
25214;DHT22;13160;51.834;4.706;2022-08-19T02:39:11;19.70;99.90
25214;DHT22;13160;51.834;4.706;2022-08-19T02:41:38;19.70;99.90
25214;DHT22;13160;51.834;4.706;2022-08-19T02:44:08;19.80;99.90
25214;DHT22;13160;51.834;4.706;2022-08-19T02:46:56;19.70;99.90
25214;DHT22;13160;51.834;4.706;2022-08-19T02:49:24;19.70;99.90
25214;DHT22;13160;51.834;4.706;2022-08-19T02:51:53;19.80;99.90
25214;DHT22;13160;51.834;4.706;2022-08-19T02:54:21;19.70;99.90
25214;DHT22;13160;51.834;4.706;2022-08-19T02:56:50;19.70;99.90
25214;DHT22;13160;51.834;4.706;2022-08-19T02:59:20;19.70;99.90
25214;DHT22;13160;51.834;4.706;2022-08-19T03:01:51;19.70;99.90
25214;DHT22;13160;51.834;4.706;2022-08-19T03:04:20;19.70;99.90
25214;DHT22;13160;51.834;4.706;2022-08-19T03:06:49;19.70;99.90
25214;DHT22;13160;51.834;4.706;2022-08-19T03:09:19;19.70;99.90
25214;DHT22;13160;51.834;4.706;2022-08-19T03:11:48;19.70;99.90
25214;DHT22;13160;51.834;4.706;2022-08-19T03:14:20;19.70;99.90
25214;DHT22;13160;51.834;4.706;2022-08-19T03:16:51;19.70;99.90
25214;DHT22;13160;51.834;4.706;2022-08-19T03:19:21;19.70;99.90
25214;DHT22;13160;51.834;4.706;2022-08-19T03:21:50;19.70;99.90
25214;DHT22;13160;51.834;4.706;2022-08-19T03:24:21;19.70;99.90
25214;DHT22;13160;51.834;4.706;2022-08-19T03:26:52;19.70;99.90
25214;DHT22;13160;51.834;4.706;2022-08-19T03:29:27;19.70;99.90
25214;DHT22;13160;51.834;4.706;2022-08-19T03:31:58;19.70;99.90
25214;DHT22;13160;51.834;4.706;2022-08-19T03:34:32;19.70;99.90
25214;DHT22;13160;51.834;4.706;2022-08-19T03:37:05;19.70;99.90
25214;DHT22;13160;51.834;4.706;2022-08-19T03:39:37;19.70;99.90
25214;DHT22;13160;51.834;4.706;2022-08-19T03:42:06;19.70;99.90
25214;DHT22;13160;51.834;4.706;2022-08-19T03:44:59;19.70;99.90
25214;DHT22;13160;51.834;4.706;2022-08-19T03:47:27;19.60;99.90
25214;DHT22;13160;51.834;4.706;2022-08-19T03:50:00;19.70;99.90
25214;DHT22;13160;51.834;4.706;2022-08-19T03:52:29;19.60;99.90
25214;DHT22;13160;51.834;4.706;2022-08-19T03:54:58;19.60;99.90
25214;DHT22;13160;51.834;4.706;2022-08-19T03:57:27;19.60;99.90
25214;DHT22;13160;51.834;4.706;2022-08-19T03:59:59;19.60;99.90
25214;DHT22;13160;51.834;4.706;2022-08-19T04:02:39;19.60;99.90
25214;DHT22;13160;51.834;4.706;2022-08-19T04:05:27;19.60;99.90
25214;DHT22;13160;51.834;4.706;2022-08-19T04:07:56;19.60;99.90
25214;DHT22;13160;51.834;4.706;2022-08-19T04:10:26;19.50;99.90
25214;DHT22;13160;51.834;4.706;2022-08-19T04:12:56;19.50;99.90
25214;DHT22;13160;51.834;4.706;2022-08-19T04:15:26;19.50;99.90
25214;DHT22;13160;51.834;4.706;2022-08-19T04:17:55;19.50;99.90
25214;DHT22;13160;51.834;4.706;2022-08-19T04:20:25;19.50;99.90
25214;DHT22;13160;51.834;4.706;2022-08-19T04:22:54;19.50;99.90
25214;DHT22;13160;51.834;4.706;2022-08-19T04:25:25;19.60;99.90
25214;DHT22;13160;51.834;4.706;2022-08-19T04:28:02;19.50;99.90
25214;DHT22;13160;51.834;4.706;2022-08-19T04:30:39;19.40;99.90
25214;DHT22;13160;51.834;4.706;2022-08-19T04:33:13;19.40;99.90
25214;DHT22;13160;51.834;4.706;2022-08-19T04:35:56;19.40;99.90
25214;DHT22;13160;51.834;4.706;2022-08-19T04:38:26;19.40;99.90
25214;DHT22;13160;51.834;4.706;2022-08-19T04:40:58;19.40;99.90
25214;DHT22;13160;51.834;4.706;2022-08-19T04:43:45;19.30;99.90
25214;DHT22;13160;51.834;4.706;2022-08-19T04:46:17;19.40;99.90
25214;DHT22;13160;51.834;4.706;2022-08-19T04:49:06;19.40;99.90
25214;DHT22;13160;51.834;4.706;2022-08-19T04:51:41;19.40;99.90
25214;DHT22;13160;51.834;4.706;2022-08-19T04:54:12;19.40;99.90
25214;DHT22;13160;51.834;4.706;2022-08-19T04:57:03;19.40;99.90
25214;DHT22;13160;51.834;4.706;2022-08-19T04:59:34;19.40;99.90
25214;DHT22;13160;51.834;4.706;2022-08-19T05:02:13;19.40;99.90
25214;DHT22;13160;51.834;4.706;2022-08-19T05:04:44;19.40;99.90
25214;DHT22;13160;51.834;4.706;2022-08-19T05:07:13;19.40;99.90
25214;DHT22;13160;51.834;4.706;2022-08-19T05:09:42;19.40;99.90
25214;DHT22;13160;51.834;4.706;2022-08-19T05:12:26;19.40;99.90
25214;DHT22;13160;51.834;4.706;2022-08-19T05:14:56;19.40;99.90
25214;DHT22;13160;51.834;4.706;2022-08-19T05:17:27;19.50;99.90
25214;DHT22;13160;51.834;4.706;2022-08-19T05:20:07;19.50;99.90
25214;DHT22;13160;51.834;4.706;2022-08-19T05:22:54;19.50;99.90
25214;DHT22;13160;51.834;4.706;2022-08-19T05:25:23;19.50;99.90
25214;DHT22;13160;51.834;4.706;2022-08-19T05:27:52;19.50;99.90
25214;DHT22;13160;51.834;4.706;2022-08-19T05:30:21;19.60;99.90
25214;DHT22;13160;51.834;4.706;2022-08-19T05:33:12;19.60;99.90
25214;DHT22;13160;51.834;4.706;2022-08-19T05:35:42;19.60;99.90
25214;DHT22;13160;51.834;4.706;2022-08-19T05:38:15;19.70;99.90
25214;DHT22;13160;51.834;4.706;2022-08-19T05:40:44;19.70;99.90
25214;DHT22;13160;51.834;4.706;2022-08-19T05:43:14;19.70;99.90
25214;DHT22;13160;51.834;4.706;2022-08-19T05:45:44;19.70;99.90
25214;DHT22;13160;51.834;4.706;2022-08-19T05:48:14;19.80;99.90
25214;DHT22;13160;51.834;4.706;2022-08-19T05:50:46;19.80;99.90
25214;DHT22;13160;51.834;4.706;2022-08-19T05:53:19;19.90;99.90
25214;DHT22;13160;51.834;4.706;2022-08-19T05:55:55;19.80;99.90
25214;DHT22;13160;51.834;4.706;2022-08-19T05:58:25;19.90;99.90
25214;DHT22;13160;51.834;4.706;2022-08-19T06:00:54;19.90;99.90
25214;DHT22;13160;51.834;4.706;2022-08-19T06:03:25;19.90;99.90
25214;DHT22;13160;51.834;4.706;2022-08-19T06:05:54;19.90;99.90
25214;DHT22;13160;51.834;4.706;2022-08-19T06:08:25;19.90;99.90
25214;DHT22;13160;51.834;4.706;2022-08-19T06:11:12;19.90;99.90
25214;DHT22;13160;51.834;4.706;2022-08-19T06:13:46;20.00;99.90
25214;DHT22;13160;51.834;4.706;2022-08-19T06:16:25;20.00;99.90
25214;DHT22;13160;51.834;4.706;2022-08-19T06:18:56;20.00;99.90
25214;DHT22;13160;51.834;4.706;2022-08-19T06:21:29;20.10;99.90
25214;DHT22;13160;51.834;4.706;2022-08-19T06:23:58;20.10;99.90
25214;DHT22;13160;51.834;4.706;2022-08-19T06:26:27;20.20;99.90
25214;DHT22;13160;51.834;4.706;2022-08-19T06:28:56;20.20;99.90
25214;DHT22;13160;51.834;4.706;2022-08-19T06:31:28;20.30;99.90
25214;DHT22;13160;51.834;4.706;2022-08-19T06:33:59;20.30;99.90
25214;DHT22;13160;51.834;4.706;2022-08-19T06:36:31;20.40;99.90
25214;DHT22;13160;51.834;4.706;2022-08-19T06:39:06;20.50;99.90
25214;DHT22;13160;51.834;4.706;2022-08-19T06:41:37;20.50;99.90
25214;DHT22;13160;51.834;4.706;2022-08-19T06:44:17;20.50;99.90
25214;DHT22;13160;51.834;4.706;2022-08-19T06:46:47;20.60;99.90
25214;DHT22;13160;51.834;4.706;2022-08-19T06:49:22;20.60;99.90
25214;DHT22;13160;51.834;4.706;2022-08-19T06:51:53;20.70;99.90
25214;DHT22;13160;51.834;4.706;2022-08-19T06:54:23;20.70;99.90
25214;DHT22;13160;51.834;4.706;2022-08-19T06:56:57;20.70;99.90
25214;DHT22;13160;51.834;4.706;2022-08-19T06:59:30;20.70;99.90
25214;DHT22;13160;51.834;4.706;2022-08-19T07:02:02;20.70;99.90
25214;DHT22;13160;51.834;4.706;2022-08-19T07:04:35;20.70;99.90
25214;DHT22;13160;51.834;4.706;2022-08-19T07:07:10;20.80;99.90
25214;DHT22;13160;51.834;4.706;2022-08-19T07:09:46;20.80;99.90
25214;DHT22;13160;51.834;4.706;2022-08-19T07:12:28;20.90;99.90
25214;DHT22;13160;51.834;4.706;2022-08-19T07:15:01;20.90;99.90
25214;DHT22;13160;51.834;4.706;2022-08-19T07:17:31;21.00;99.90
25214;DHT22;13160;51.834;4.706;2022-08-19T07:20:07;21.00;99.90
25214;DHT22;13160;51.834;4.706;2022-08-19T07:22:36;21.10;99.90
25214;DHT22;13160;51.834;4.706;2022-08-19T07:25:07;21.10;99.90
25214;DHT22;13160;51.834;4.706;2022-08-19T07:27:36;21.10;99.90
25214;DHT22;13160;51.834;4.706;2022-08-19T07:30:06;21.20;99.90
25214;DHT22;13160;51.834;4.706;2022-08-19T07:32:39;21.20;99.90
25214;DHT22;13160;51.834;4.706;2022-08-19T07:35:09;21.20;99.90
25214;DHT22;13160;51.834;4.706;2022-08-19T07:37:38;21.30;99.90
25214;DHT22;13160;51.834;4.706;2022-08-19T07:40:11;21.30;99.90
25214;DHT22;13160;51.834;4.706;2022-08-19T07:42:40;21.40;99.90
25214;DHT22;13160;51.834;4.706;2022-08-19T07:45:09;21.50;99.90
25214;DHT22;13160;51.834;4.706;2022-08-19T07:47:38;21.60;99.90
25214;DHT22;13160;51.834;4.706;2022-08-19T07:50:19;21.70;99.90
25214;DHT22;13160;51.834;4.706;2022-08-19T07:52:49;21.80;99.90
25214;DHT22;13160;51.834;4.706;2022-08-19T07:55:25;21.90;99.90
25214;DHT22;13160;51.834;4.706;2022-08-19T07:58:10;22.00;99.90
25214;DHT22;13160;51.834;4.706;2022-08-19T08:00:40;22.20;99.90
25214;DHT22;13160;51.834;4.706;2022-08-19T08:03:09;22.30;99.90
25214;DHT22;13160;51.834;4.706;2022-08-19T08:05:39;22.40;99.90
25214;DHT22;13160;51.834;4.706;2022-08-19T08:08:25;22.50;99.90
25214;DHT22;13160;51.834;4.706;2022-08-19T08:11:15;22.50;99.90
25214;DHT22;13160;51.834;4.706;2022-08-19T08:13:49;22.60;99.90
25214;DHT22;13160;51.834;4.706;2022-08-19T08:16:31;22.60;99.90
25214;DHT22;13160;51.834;4.706;2022-08-19T08:19:06;22.60;99.90
25214;DHT22;13160;51.834;4.706;2022-08-19T08:21:53;22.70;99.90
25214;DHT22;13160;51.834;4.706;2022-08-19T08:24:22;22.70;99.90
25214;DHT22;13160;51.834;4.706;2022-08-19T08:26:54;22.70;99.90
25214;DHT22;13160;51.834;4.706;2022-08-19T08:29:23;22.80;99.90
25214;DHT22;13160;51.834;4.706;2022-08-19T08:32:00;22.80;99.90
25214;DHT22;13160;51.834;4.706;2022-08-19T08:34:40;22.90;99.90
25214;DHT22;13160;51.834;4.706;2022-08-19T08:37:10;23.00;99.90
25214;DHT22;13160;51.834;4.706;2022-08-19T08:39:41;23.10;99.90
25214;DHT22;13160;51.834;4.706;2022-08-19T08:42:15;23.20;99.90
25214;DHT22;13160;51.834;4.706;2022-08-19T08:44:55;23.20;99.90
25214;DHT22;13160;51.834;4.706;2022-08-19T08:47:36;23.20;99.90
25214;DHT22;13160;51.834;4.706;2022-08-19T08:50:18;23.20;99.90
25214;DHT22;13160;51.834;4.706;2022-08-19T08:52:56;23.30;99.90
25214;DHT22;13160;51.834;4.706;2022-08-19T08:55:28;23.30;99.90
25214;DHT22;13160;51.834;4.706;2022-08-19T08:58:05;23.40;99.90
25214;DHT22;13160;51.834;4.706;2022-08-19T09:00:37;23.50;99.90
25214;DHT22;13160;51.834;4.706;2022-08-19T09:03:18;23.50;99.90
25214;DHT22;13160;51.834;4.706;2022-08-19T09:05:56;23.60;99.90
25214;DHT22;13160;51.834;4.706;2022-08-19T09:08:40;23.70;99.90
25214;DHT22;13160;51.834;4.706;2022-08-19T09:11:18;23.80;99.90
25214;DHT22;13160;51.834;4.706;2022-08-19T09:14:19;23.80;99.90
25214;DHT22;13160;51.834;4.706;2022-08-19T09:17:16;23.80;99.90
25214;DHT22;13160;51.834;4.706;2022-08-19T09:19:51;23.90;99.90
25214;DHT22;13160;51.834;4.706;2022-08-19T09:22:21;24.00;99.90
25214;DHT22;13160;51.834;4.706;2022-08-19T09:24:54;24.10;99.90
25214;DHT22;13160;51.834;4.706;2022-08-19T09:27:24;24.20;99.90
25214;DHT22;13160;51.834;4.706;2022-08-19T09:30:16;24.30;99.90
25214;DHT22;13160;51.834;4.706;2022-08-19T09:32:45;24.30;99.90
25214;DHT22;13160;51.834;4.706;2022-08-19T09:35:22;24.40;99.90
25214;DHT22;13160;51.834;4.706;2022-08-19T09:37:54;24.40;99.90
25214;DHT22;13160;51.834;4.706;2022-08-19T09:40:27;24.50;99.90
25214;DHT22;13160;51.834;4.706;2022-08-19T09:42:59;24.50;99.90
25214;DHT22;13160;51.834;4.706;2022-08-19T09:45:37;24.70;99.90
25214;DHT22;13160;51.834;4.706;2022-08-19T09:48:05;24.80;99.90
25214;DHT22;13160;51.834;4.706;2022-08-19T09:50:35;24.80;99.90
25214;DHT22;13160;51.834;4.706;2022-08-19T09:53:18;25.00;99.90
25214;DHT22;13160;51.834;4.706;2022-08-19T09:55:54;25.10;99.90
25214;DHT22;13160;51.834;4.706;2022-08-19T09:58:23;25.20;99.90
25214;DHT22;13160;51.834;4.706;2022-08-19T10:00:54;25.30;99.90
25214;DHT22;13160;51.834;4.706;2022-08-19T10:03:23;25.40;99.90
25214;DHT22;13160;51.834;4.706;2022-08-19T10:05:57;25.40;99.90
25214;DHT22;13160;51.834;4.706;2022-08-19T10:08:28;25.50;99.90
25214;DHT22;13160;51.834;4.706;2022-08-19T10:10:59;25.50;99.90
25214;DHT22;13160;51.834;4.706;2022-08-19T10:13:48;25.60;99.90
25214;DHT22;13160;51.834;4.706;2022-08-19T10:16:20;25.50;99.90
25214;DHT22;13160;51.834;4.706;2022-08-19T10:18:55;25.50;99.90
25214;DHT22;13160;51.834;4.706;2022-08-19T10:21:27;25.50;99.90
25214;DHT22;13160;51.834;4.706;2022-08-19T10:24:00;25.50;99.90
25214;DHT22;13160;51.834;4.706;2022-08-19T10:26:33;25.60;99.90
25214;DHT22;13160;51.834;4.706;2022-08-19T10:29:05;25.70;99.90
25214;DHT22;13160;51.834;4.706;2022-08-19T10:31:35;25.70;99.90
25214;DHT22;13160;51.834;4.706;2022-08-19T10:34:23;25.90;99.90
25214;DHT22;13160;51.834;4.706;2022-08-19T10:36:55;26.00;99.90
25214;DHT22;13160;51.834;4.706;2022-08-19T10:39:28;26.20;99.20
25214;DHT22;13160;51.834;4.706;2022-08-19T10:42:08;26.20;99.00
25214;DHT22;13160;51.834;4.706;2022-08-19T10:44:39;26.30;99.10
25214;DHT22;13160;51.834;4.706;2022-08-19T10:47:08;26.40;98.60
25214;DHT22;13160;51.834;4.706;2022-08-19T10:49:50;26.40;98.50
25214;DHT22;13160;51.834;4.706;2022-08-19T10:52:38;26.40;98.60
25214;DHT22;13160;51.834;4.706;2022-08-19T10:55:17;26.30;99.00
25214;DHT22;13160;51.834;4.706;2022-08-19T10:58:10;26.20;99.20
25214;DHT22;13160;51.834;4.706;2022-08-19T11:00:40;26.10;99.40
25214;DHT22;13160;51.834;4.706;2022-08-19T11:03:09;26.10;99.70
25214;DHT22;13160;51.834;4.706;2022-08-19T11:05:38;26.10;99.80
25214;DHT22;13160;51.834;4.706;2022-08-19T11:08:07;26.20;99.70
25214;DHT22;13160;51.834;4.706;2022-08-19T11:10:50;26.20;99.80
25214;DHT22;13160;51.834;4.706;2022-08-19T11:13:22;26.20;99.60
25214;DHT22;13160;51.834;4.706;2022-08-19T11:15:59;26.30;99.60
25214;DHT22;13160;51.834;4.706;2022-08-19T11:18:35;26.30;99.50
25214;DHT22;13160;51.834;4.706;2022-08-19T11:21:13;26.40;99.40
25214;DHT22;13160;51.834;4.706;2022-08-19T11:23:44;26.50;99.80
25214;DHT22;13160;51.834;4.706;2022-08-19T11:26:14;26.60;99.20
25214;DHT22;13160;51.834;4.706;2022-08-19T11:28:44;26.60;99.30
25214;DHT22;13160;51.834;4.706;2022-08-19T11:31:15;26.80;98.60
25214;DHT22;13160;51.834;4.706;2022-08-19T11:33:45;26.80;98.40
25214;DHT22;13160;51.834;4.706;2022-08-19T11:36:14;26.80;98.50
25214;DHT22;13160;51.834;4.706;2022-08-19T11:38:44;26.90;98.50
25214;DHT22;13160;51.834;4.706;2022-08-19T11:41:16;26.90;98.60
25214;DHT22;13160;51.834;4.706;2022-08-19T11:43:47;27.00;98.70
25214;DHT22;13160;51.834;4.706;2022-08-19T11:46:16;27.00;98.50
25214;DHT22;13160;51.834;4.706;2022-08-19T11:48:45;27.10;98.50
25214;DHT22;13160;51.834;4.706;2022-08-19T11:51:17;27.10;98.20
25214;DHT22;13160;51.834;4.706;2022-08-19T11:53:48;27.10;98.20
25214;DHT22;13160;51.834;4.706;2022-08-19T11:56:18;27.20;98.50
25214;DHT22;13160;51.834;4.706;2022-08-19T11:58:48;27.30;98.30
25214;DHT22;13160;51.834;4.706;2022-08-19T12:01:18;27.40;98.00
25214;DHT22;13160;51.834;4.706;2022-08-19T12:03:50;27.50;97.70
25214;DHT22;13160;51.834;4.706;2022-08-19T12:06:21;27.60;97.70
25214;DHT22;13160;51.834;4.706;2022-08-19T12:08:52;27.60;97.20
25214;DHT22;13160;51.834;4.706;2022-08-19T12:11:20;27.70;97.00
25214;DHT22;13160;51.834;4.706;2022-08-19T12:13:51;27.70;97.20
25214;DHT22;13160;51.834;4.706;2022-08-19T12:16:23;27.80;96.80
25214;DHT22;13160;51.834;4.706;2022-08-19T12:18:55;27.80;97.00
25214;DHT22;13160;51.834;4.706;2022-08-19T12:21:26;27.90;96.50
25214;DHT22;13160;51.834;4.706;2022-08-19T12:23:57;28.00;96.20
25214;DHT22;13160;51.834;4.706;2022-08-19T12:26:29;28.00;96.00
25214;DHT22;13160;51.834;4.706;2022-08-19T12:28:59;28.10;96.00
25214;DHT22;13160;51.834;4.706;2022-08-19T12:31:28;28.10;95.80
25214;DHT22;13160;51.834;4.706;2022-08-19T12:33:57;28.10;95.70
25214;DHT22;13160;51.834;4.706;2022-08-19T12:36:29;28.10;95.50
25214;DHT22;13160;51.834;4.706;2022-08-19T12:39:02;28.10;95.50
25214;DHT22;13160;51.834;4.706;2022-08-19T12:41:37;28.10;95.00
25214;DHT22;13160;51.834;4.706;2022-08-19T12:44:29;28.00;95.00
25214;DHT22;13160;51.834;4.706;2022-08-19T12:46:59;28.00;95.10
25214;DHT22;13160;51.834;4.706;2022-08-19T12:49:34;27.90;95.20
25214;DHT22;13160;51.834;4.706;2022-08-19T12:52:21;27.80;95.40
25214;DHT22;13160;51.834;4.706;2022-08-19T12:54:51;27.80;95.50
25214;DHT22;13160;51.834;4.706;2022-08-19T12:57:21;27.80;95.40
25214;DHT22;13160;51.834;4.706;2022-08-19T13:00:03;27.80;95.70
25214;DHT22;13160;51.834;4.706;2022-08-19T13:02:37;27.80;95.60
25214;DHT22;13160;51.834;4.706;2022-08-19T13:05:07;27.70;95.90
25214;DHT22;13160;51.834;4.706;2022-08-19T13:07:39;27.70;95.70
25214;DHT22;13160;51.834;4.706;2022-08-19T13:10:10;27.60;95.80
25214;DHT22;13160;51.834;4.706;2022-08-19T13:12:41;27.60;96.40
25214;DHT22;13160;51.834;4.706;2022-08-19T13:15:12;27.40;97.20
25214;DHT22;13160;51.834;4.706;2022-08-19T13:17:45;27.30;97.80
25214;DHT22;13160;51.834;4.706;2022-08-19T13:20:17;27.20;98.30
25214;DHT22;13160;51.834;4.706;2022-08-19T13:22:47;27.10;98.20
25214;DHT22;13160;51.834;4.706;2022-08-19T13:25:17;26.90;98.90
25214;DHT22;13160;51.834;4.706;2022-08-19T13:27:47;26.80;99.50
25214;DHT22;13160;51.834;4.706;2022-08-19T13:30:19;26.70;99.90
25214;DHT22;13160;51.834;4.706;2022-08-19T13:33:07;26.60;99.90
25214;DHT22;13160;51.834;4.706;2022-08-19T13:35:43;26.50;99.90
25214;DHT22;13160;51.834;4.706;2022-08-19T13:38:16;26.40;99.90
25214;DHT22;13160;51.834;4.706;2022-08-19T13:40:45;26.40;99.90
25214;DHT22;13160;51.834;4.706;2022-08-19T13:43:14;26.30;99.90
25214;DHT22;13160;51.834;4.706;2022-08-19T13:45:51;26.30;99.90
25214;DHT22;13160;51.834;4.706;2022-08-19T13:48:23;26.30;99.90
25214;DHT22;13160;51.834;4.706;2022-08-19T13:50:53;26.30;99.90
25214;DHT22;13160;51.834;4.706;2022-08-19T13:53:22;26.30;99.90
25214;DHT22;13160;51.834;4.706;2022-08-19T13:55:51;26.30;99.90
25214;DHT22;13160;51.834;4.706;2022-08-19T13:58:20;26.30;99.90
25214;DHT22;13160;51.834;4.706;2022-08-19T14:00:50;26.30;99.90
25214;DHT22;13160;51.834;4.706;2022-08-19T14:03:19;26.30;99.90
25214;DHT22;13160;51.834;4.706;2022-08-19T14:05:47;26.30;99.90
25214;DHT22;13160;51.834;4.706;2022-08-19T14:08:16;26.30;99.90
25214;DHT22;13160;51.834;4.706;2022-08-19T14:10:45;26.30;99.90
25214;DHT22;13160;51.834;4.706;2022-08-19T14:13:16;26.30;99.90
25214;DHT22;13160;51.834;4.706;2022-08-19T14:15:46;26.40;99.90
25214;DHT22;13160;51.834;4.706;2022-08-19T14:18:18;26.50;99.90
25214;DHT22;13160;51.834;4.706;2022-08-19T14:20:46;26.50;99.90
25214;DHT22;13160;51.834;4.706;2022-08-19T14:23:15;26.50;99.90
25214;DHT22;13160;51.834;4.706;2022-08-19T14:25:44;26.50;99.90
25214;DHT22;13160;51.834;4.706;2022-08-19T14:28:13;26.40;99.90
25214;DHT22;13160;51.834;4.706;2022-08-19T14:30:41;26.30;99.90
25214;DHT22;13160;51.834;4.706;2022-08-19T14:33:11;26.30;99.90
25214;DHT22;13160;51.834;4.706;2022-08-19T14:35:42;26.20;99.90
25214;DHT22;13160;51.834;4.706;2022-08-19T14:38:15;26.20;99.90
25214;DHT22;13160;51.834;4.706;2022-08-19T14:41:06;26.20;99.90
25214;DHT22;13160;51.834;4.706;2022-08-19T14:43:39;26.20;99.90
25214;DHT22;13160;51.834;4.706;2022-08-19T14:46:08;26.10;99.90
25214;DHT22;13160;51.834;4.706;2022-08-19T14:48:42;26.00;99.90
25214;DHT22;13160;51.834;4.706;2022-08-19T14:51:13;26.00;99.90
25214;DHT22;13160;51.834;4.706;2022-08-19T14:53:42;25.90;99.90
25214;DHT22;13160;51.834;4.706;2022-08-19T14:56:13;25.90;99.90
25214;DHT22;13160;51.834;4.706;2022-08-19T14:58:43;25.80;99.90
25214;DHT22;13160;51.834;4.706;2022-08-19T15:01:13;25.80;99.90
25214;DHT22;13160;51.834;4.706;2022-08-19T15:03:41;25.70;99.90
25214;DHT22;13160;51.834;4.706;2022-08-19T15:06:09;25.70;99.90
25214;DHT22;13160;51.834;4.706;2022-08-19T15:08:41;25.60;99.90
25214;DHT22;13160;51.834;4.706;2022-08-19T15:11:13;25.60;99.90
25214;DHT22;13160;51.834;4.706;2022-08-19T15:13:43;25.60;99.90
25214;DHT22;13160;51.834;4.706;2022-08-19T15:16:13;25.60;99.90
25214;DHT22;13160;51.834;4.706;2022-08-19T15:18:45;25.60;99.90
25214;DHT22;13160;51.834;4.706;2022-08-19T15:21:17;25.60;99.90
25214;DHT22;13160;51.834;4.706;2022-08-19T15:23:53;25.60;99.90
25214;DHT22;13160;51.834;4.706;2022-08-19T15:26:23;25.50;99.90
25214;DHT22;13160;51.834;4.706;2022-08-19T15:28:53;25.40;99.90
25214;DHT22;13160;51.834;4.706;2022-08-19T15:31:21;25.40;99.90
25214;DHT22;13160;51.834;4.706;2022-08-19T15:33:54;25.30;99.90
25214;DHT22;13160;51.834;4.706;2022-08-19T15:36:26;25.30;99.90
25214;DHT22;13160;51.834;4.706;2022-08-19T15:38:55;25.30;99.90
25214;DHT22;13160;51.834;4.706;2022-08-19T15:41:27;25.30;99.90
25214;DHT22;13160;51.834;4.706;2022-08-19T15:43:59;25.20;99.90
25214;DHT22;13160;51.834;4.706;2022-08-19T15:46:31;25.10;99.90
25214;DHT22;13160;51.834;4.706;2022-08-19T15:49:00;25.10;99.90
25214;DHT22;13160;51.834;4.706;2022-08-19T15:51:33;25.00;99.90
25214;DHT22;13160;51.834;4.706;2022-08-19T15:54:04;24.90;99.90
25214;DHT22;13160;51.834;4.706;2022-08-19T15:56:34;24.80;99.90
25214;DHT22;13160;51.834;4.706;2022-08-19T15:59:24;24.80;99.90
25214;DHT22;13160;51.834;4.706;2022-08-19T16:02:14;24.70;99.90
25214;DHT22;13160;51.834;4.706;2022-08-19T16:05:04;24.70;99.90